Time;durP1;ratioP1;P1;durP2;ratioP2;P2;SDS_P1;SDS_P2;PMS_P1;PMS_P2;Temp;Humidity;BMP_temperature;BMP_pressure;BME280_temperature;BME280_humidity;BME280_pressure;Samples;Min_cycle;Max_cycle;Signal;HPM_P1;HPM_P2
2022/02/28 00:01:10;;;;;;;77.05;37.90;;;-0.50;99.90;;;;;;2603240;54;20104;31
2022/02/28 00:03:45;;;;;;;80.65;40.55;;;-0.50;99.90;;;;;;2621421;47;20038;31
2022/02/28 00:06:19;;;;;;;75.75;38.55;;;-0.60;99.90;;;;;;2603417;54;20030;31
2022/02/28 00:08:54;;;;;;;80.00;38.95;;;-0.60;99.90;;;;;;2603383;54;20798;31
2022/02/28 00:11:29;;;;;;;78.35;38.95;;;-0.60;99.90;;;;;;2604105;54;20058;31
2022/02/28 00:14:04;;;;;;;;;;;-0.70;99.90;;;;;;2604208;54;20033;31
2022/02/28 00:16:42;;;;;;;80.53;39.70;;;-0.70;99.90;;;;;;2603974;54;19957;31
2022/02/28 00:19:17;;;;;;;97.07;42.40;;;-0.70;99.90;;;;;;2604003;54;20034;31
2022/02/28 00:21:51;;;;;;;91.45;41.70;;;-0.70;99.90;;;;;;2604087;54;20085;31
2022/02/28 00:24:26;;;;;;;82.22;40.40;;;-0.70;99.90;;;;;;2603884;54;24157;31
2022/02/28 00:27:01;;;;;;;86.40;41.30;;;-0.70;99.90;;;;;;2603844;54;20039;31
2022/02/28 00:29:35;;;;;;;80.97;41.22;;;-0.80;99.90;;;;;;2702438;39;20478;31
2022/02/28 00:32:13;;;;;;;79.03;38.28;;;-0.80;99.90;;;;;;2622639;46;20881;31
2022/02/28 00:34:51;;;;;;;81.68;39.67;;;-0.90;99.90;;;;;;2603834;54;20038;31
2022/02/28 00:37:25;;;;;;;89.65;42.38;;;-0.90;99.90;;;;;;2603865;54;20930;31
2022/02/28 00:40:01;;;;;;;100.35;45.35;;;-0.90;99.90;;;;;;2603988;54;20146;31
2022/02/28 00:42:34;;;;;;;;;;;-0.90;99.90;;;;;;2604117;54;20150;31
2022/02/28 00:45:09;;;;;;;92.03;41.33;;;-1.00;99.90;;;;;;2702459;39;20463;31
2022/02/28 00:47:48;;;;;;;87.83;41.57;;;-1.00;99.90;;;;;;2603948;54;20890;31
2022/02/28 00:50:22;;;;;;;82.45;41.15;;;-1.00;99.90;;;;;;2603861;54;20265;31
2022/02/28 00:52:56;;;;;;;89.83;43.37;;;-1.00;99.90;;;;;;2622356;46;20882;31
2022/02/28 00:55:29;;;;;;;84.50;41.10;;;-1.00;99.90;;;;;;2774094;31;21230;31
2022/02/28 00:58:03;;;;;;;94.07;42.97;;;-1.10;99.90;;;;;;2702405;39;21048;31
2022/02/28 01:00:38;;;;;;;93.03;43.78;;;-1.10;99.90;;;;;;2603811;54;20042;31
2022/02/28 01:03:14;;;;;;;88.13;41.22;;;-1.10;99.90;;;;;;2603793;54;20905;31
2022/02/28 01:05:52;;;;;;;85.80;39.70;;;-1.10;99.90;;;;;;2603798;54;20085;31
2022/02/28 01:08:26;;;;;;;84.13;39.13;;;-1.20;99.90;;;;;;2603774;54;20056;31
2022/02/28 01:11:01;;;;;;;82.43;39.72;;;-1.20;99.90;;;;;;2603594;54;20851;31
2022/02/28 01:13:35;;;;;;;78.53;38.38;;;-1.20;99.90;;;;;;2603918;54;20033;31
2022/02/28 01:16:09;;;;;;;80.45;38.50;;;-1.20;99.90;;;;;;2603892;54;20895;31
2022/02/28 01:18:48;;;;;;;76.95;36.92;;;-1.30;99.90;;;;;;2603759;54;20089;31
2022/02/28 01:21:23;;;;;;;80.15;38.22;;;-1.30;99.90;;;;;;2603742;54;20065;31
2022/02/28 01:23:58;;;;;;;81.80;37.37;;;-1.30;99.90;;;;;;2603705;54;20046;31
2022/02/28 01:26:33;;;;;;;85.05;36.80;;;-1.40;99.90;;;;;;2603589;54;20321;31
2022/02/28 01:29:07;;;;;;;81.00;36.73;;;-1.40;99.90;;;;;;2603866;54;20067;31
2022/02/28 01:31:42;;;;;;;85.00;36.73;;;-1.40;99.90;;;;;;2603463;54;20037;31
2022/02/28 01:34:19;;;;;;;77.72;36.67;;;-1.50;99.90;;;;;;2622625;46;21082;31
2022/02/28 01:36:54;;;;;;;73.32;34.25;;;-1.50;99.90;;;;;;2603636;54;20038;31
2022/02/28 01:39:29;;;;;;;74.03;35.87;;;-1.50;99.90;;;;;;2603587;54;20085;31
2022/02/28 01:42:03;;;;;;;70.25;33.35;;;-1.60;99.90;;;;;;2603693;54;20053;31
2022/02/28 01:44:37;;;;;;;80.00;35.65;;;-1.60;99.90;;;;;;2603628;54;20924;31
2022/02/28 01:47:12;;;;;;;71.78;33.88;;;-1.60;99.90;;;;;;2603561;54;20958;31
2022/02/28 01:49:48;;;;;;;72.78;33.28;;;-1.60;99.90;;;;;;2621943;46;20076;31
2022/02/28 01:52:27;;;;;;;76.93;35.07;;;-1.60;99.90;;;;;;2603296;54;20082;31
2022/02/28 01:55:02;;;;;;;74.00;36.15;;;-1.60;99.90;;;;;;2603640;54;20271;31
2022/02/28 01:57:37;;;;;;;72.97;35.45;;;-1.60;99.90;;;;;;2603543;54;20033;31
2022/02/28 02:00:15;;;;;;;81.10;34.30;;;-1.70;99.90;;;;;;2603593;54;20983;31
2022/02/28 02:02:51;;;;;;;69.03;32.40;;;-1.70;99.90;;;;;;2603737;54;25057;31
2022/02/28 02:05:29;;;;;;;84.53;38.00;;;-1.70;99.90;;;;;;2603831;54;20030;31
2022/02/28 02:08:07;;;;;;;72.72;34.58;;;-1.70;99.90;;;;;;2622093;46;20799;31
2022/02/28 02:10:46;;;;;;;70.25;33.53;;;-1.70;99.90;;;;;;2603528;54;20833;31
2022/02/28 02:13:20;;;;;;;;;;;-1.70;99.90;;;;;;2773863;31;21501;31
2022/02/28 02:15:53;;;;;;;79.80;35.30;;;-1.80;99.90;;;;;;2702357;39;20924;31
2022/02/28 02:18:27;;;;;;;75.25;34.47;;;-1.80;99.90;;;;;;2701886;39;21477;31
2022/02/28 02:21:05;;;;;;;80.27;35.20;;;-1.80;99.90;;;;;;2603595;54;20037;31
2022/02/28 02:23:41;;;;;;;78.63;36.20;;;-1.80;99.90;;;;;;2603598;54;20085;31
2022/02/28 02:26:16;;;;;;;77.78;37.60;;;-1.80;99.90;;;;;;2603590;54;20046;31
2022/02/28 02:28:51;;;;;;;82.60;39.25;;;-1.90;99.90;;;;;;2603502;54;20061;31
2022/02/28 02:31:23;;;;;;;78.37;36.63;;;-1.90;99.90;;;;;;2702000;39;22257;31
2022/02/28 02:34:01;;;;;;;78.97;34.42;;;-1.90;99.90;;;;;;2603495;54;20101;31
2022/02/28 02:36:42;;;;;;;72.90;32.58;;;-1.90;99.90;;;;;;2603569;54;20053;31
2022/02/28 02:39:20;;;;;;;81.17;36.57;;;-1.90;99.90;;;;;;2603413;54;20076;31
2022/02/28 02:41:58;;;;;;;72.93;34.67;;;-1.90;99.90;;;;;;2603270;54;20313;31
2022/02/28 02:44:34;;;;;;;71.00;33.88;;;-2.10;99.90;;;;;;2603244;54;20115;31
2022/02/28 02:47:09;;;;;;;64.93;32.42;;;-2.00;99.90;;;;;;2602905;54;20965;31
2022/02/28 02:50:03;;;;;;;68.77;32.47;;;-2.00;99.90;;;;;;2603433;54;20061;31
2022/02/28 02:52:40;;;;;;;;;;;-2.10;99.90;;;;;;2622371;46;20023;31
2022/02/28 02:55:15;;;;;;;59.50;29.48;;;-2.10;99.90;;;;;;2603450;54;19943;31
2022/02/28 02:57:49;;;;;;;68.25;33.53;;;-2.00;99.90;;;;;;2603378;54;20117;31
2022/02/28 03:00:26;;;;;;;61.70;28.73;;;-2.10;99.90;;;;;;2603559;54;20109;31
2022/02/28 03:03:13;;;;;;;72.72;31.60;;;-2.10;99.90;;;;;;2621793;46;20042;31
2022/02/28 03:05:55;;;;;;;63.22;29.58;;;-2.10;99.90;;;;;;2603718;54;20027;31
2022/02/28 03:08:34;;;;;;;57.20;27.35;;;-2.10;99.90;;;;;;2603279;54;20795;31
2022/02/28 03:11:09;;;;;;;71.38;33.33;;;-2.10;99.90;;;;;;2603530;54;20036;31
2022/02/28 03:13:44;;;;;;;70.50;32.33;;;-2.20;99.90;;;;;;2603420;54;20030;31
2022/02/28 03:16:19;;;;;;;68.07;33.35;;;-2.20;99.90;;;;;;2603426;54;20023;31
2022/02/28 03:18:54;;;;;;;65.67;32.47;;;-2.30;99.90;;;;;;2603347;54;20026;31
2022/02/28 03:21:32;;;;;;;55.03;28.17;;;-2.30;99.90;;;;;;2603309;54;20089;31
2022/02/28 03:24:10;;;;;;;64.70;29.90;;;-2.30;99.90;;;;;;2603379;54;19934;31
2022/02/28 03:29:16;;;;;;;57.65;28.02;;;-2.30;99.90;;;;;;2603209;54;20057;31
2022/02/28 03:31:53;;;;;;;53.60;25.73;;;-2.30;99.90;;;;;;2603435;54;20030;31
2022/02/28 03:34:29;;;;;;;54.17;26.67;;;-2.30;99.90;;;;;;2603444;54;20022;31
2022/02/28 03:37:04;;;;;;;53.15;24.25;;;-2.40;99.90;;;;;;2603273;54;20050;31
2022/02/28 03:39:42;;;;;;;58.25;26.33;;;-2.30;99.90;;;;;;2603214;54;20117;31
2022/02/28 03:42:18;;;;;;;66.82;27.80;;;-2.40;99.90;;;;;;2621804;46;20876;31
2022/02/28 03:44:54;;;;;;;56.15;27.55;;;-2.40;99.90;;;;;;2603215;54;20105;31
2022/02/28 03:47:27;;;;;;;61.03;27.50;;;-2.50;99.90;;;;;;2701723;39;21067;31
2022/02/28 03:50:24;;;;;;;57.28;26.38;;;-2.50;99.90;;;;;;2603356;54;20056;31
2022/02/28 03:52:59;;;;;;;71.07;31.50;;;-2.60;99.90;;;;;;2603345;54;20605;31
2022/02/28 03:55:37;;;;;;;58.20;28.55;;;-2.60;99.90;;;;;;2603316;54;20023;31
2022/02/28 03:58:12;;;;;;;52.25;24.40;;;-2.60;99.90;;;;;;2603229;54;20032;31
2022/02/28 04:00:47;;;;;;;63.35;28.65;;;-2.60;99.90;;;;;;2602840;54;20141;31
2022/02/28 04:03:26;;;;;;;52.73;25.00;;;-2.70;99.90;;;;;;2621684;47;20074;31
2022/02/28 04:06:01;;;;;;;58.70;27.20;;;-2.70;99.90;;;;;;2621649;47;20026;31
2022/02/28 04:08:36;;;;;;;54.70;26.27;;;-2.80;99.90;;;;;;2621282;47;20879;31
2022/02/28 04:11:14;;;;;;;53.17;23.60;;;-2.80;99.90;;;;;;2603074;54;20045;31
2022/02/28 04:13:49;;;;;;;58.83;25.45;;;-2.80;99.90;;;;;;2602997;54;20042;31
2022/02/28 04:16:24;;;;;;;53.33;25.15;;;-2.80;99.90;;;;;;2603067;54;20026;31
2022/02/28 04:19:19;;;;;;;56.72;27.33;;;-2.90;99.90;;;;;;2603211;54;20038;31
2022/02/28 04:21:56;;;;;;;55.87;25.80;;;-2.90;99.90;;;;;;2621587;47;20034;31
2022/02/28 04:24:30;;;;;;;61.17;27.75;;;-3.00;99.90;;;;;;2621158;47;20118;31
2022/02/28 04:27:10;;;;;;;52.70;26.00;;;-3.00;99.90;;;;;;2621794;47;20026;31
2022/02/28 04:29:47;;;;;;;58.40;26.58;;;-3.00;99.90;;;;;;2603057;54;20628;31
2022/02/28 04:32:25;;;;;;;57.63;26.40;;;-3.10;99.90;;;;;;2621219;47;20046;31
2022/02/28 04:35:04;;;;;;;53.15;23.35;;;-3.10;99.90;;;;;;2603149;54;20479;31
2022/02/28 04:37:43;;;;;;;59.90;25.97;;;-3.10;99.90;;;;;;2603112;54;20027;31
2022/02/28 04:40:19;;;;;;;59.80;25.73;;;-3.20;99.90;;;;;;2602923;54;20247;31
2022/02/28 04:42:57;;;;;;;61.20;28.98;;;-3.20;99.90;;;;;;2602867;54;20089;31
2022/02/28 04:45:32;;;;;;;66.95;28.23;;;-3.30;99.90;;;;;;2602834;54;20869;31
2022/02/28 04:48:07;;;;;;;58.60;27.20;;;-3.30;99.90;;;;;;2602933;54;20060;31
2022/02/28 04:51:15;;;;;;;54.97;23.63;;;-3.30;99.90;;;;;;2701208;39;20465;31
2022/02/28 04:53:51;;;;;;;55.77;24.57;;;-3.40;99.90;;;;;;2621611;47;20819;31
2022/02/28 04:56:25;;;;;;;50.08;23.27;;;-3.40;99.90;;;;;;2603608;54;20093;31
2022/02/28 04:59:03;;;;;;;51.05;24.25;;;-3.40;99.90;;;;;;2603594;54;20026;31
2022/02/28 05:01:46;;;;;;;51.42;24.50;;;-3.40;99.90;;;;;;2603621;54;20050;31
2022/02/28 05:04:47;;;;;;;62.00;27.08;;;-3.40;99.90;;;;;;2603745;54;20771;31
2022/02/28 05:07:22;;;;;;;63.75;28.15;;;-3.50;99.90;;;;;;2603671;54;20033;31
2022/02/28 05:09:58;;;;;;;59.55;28.50;;;-3.50;99.90;;;;;;2603435;54;20100;31
2022/02/28 05:12:36;;;;;;;54.60;23.92;;;-3.50;99.90;;;;;;2603837;54;20858;31
2022/02/28 05:15:15;;;;;;;57.50;25.80;;;-3.50;99.90;;;;;;2622364;46;20181;31
2022/02/28 05:17:51;;;;;;;55.20;25.27;;;-3.60;99.90;;;;;;2603522;54;20026;31
2022/02/28 05:20:27;;;;;;;55.97;28.15;;;-3.60;99.90;;;;;;2603079;54;20027;31
2022/02/28 05:23:01;;;;;;;61.60;28.15;;;-3.70;99.90;;;;;;2603793;54;20874;31
2022/02/28 05:25:36;;;;;;;61.50;26.88;;;-3.70;99.90;;;;;;2622232;46;20030;31
2022/02/28 05:28:32;;;;;;;57.75;26.88;;;-3.70;99.90;;;;;;2603630;54;20038;31
2022/02/28 05:31:11;;;;;;;62.90;28.45;;;-3.80;99.90;;;;;;2603280;54;20038;31
2022/02/28 05:33:47;;;;;;;62.42;28.40;;;-3.80;99.90;;;;;;2603620;54;20035;31
2022/02/28 05:36:26;;;;;;;76.15;32.60;;;-3.80;99.90;;;;;;2603568;54;20827;31
2022/02/28 05:39:30;;;;;;;66.07;31.17;;;-3.80;99.90;;;;;;2603438;54;20022;31
2022/02/28 05:42:09;;;;;;;65.30;29.58;;;-3.80;99.90;;;;;;2603571;54;20026;31
2022/02/28 05:44:45;;;;;;;65.63;31.27;;;-3.90;99.90;;;;;;2603643;54;20026;31
2022/02/28 05:47:25;;;;;;;58.85;28.75;;;-3.90;99.90;;;;;;2603606;54;20859;31
2022/02/28 05:50:01;;;;;;;57.35;25.05;;;-3.90;99.90;;;;;;2603663;54;20027;31
2022/02/28 05:52:36;;;;;;;58.78;28.20;;;-3.90;99.90;;;;;;2603725;54;20085;31
2022/02/28 05:55:14;;;;;;;65.53;28.95;;;-3.90;99.90;;;;;;2622025;46;20084;31
2022/02/28 05:57:53;;;;;;;72.93;30.05;;;-3.90;99.90;;;;;;2622093;46;20046;31
2022/02/28 06:00:29;;;;;;;66.47;31.77;;;-3.70;99.90;;;;;;2621847;46;20933;31
2022/02/28 06:03:06;;;;;;;65.78;31.00;;;-3.50;99.90;;;;;;2618894;46;20034;31
2022/02/28 06:05:47;;;;;;;63.53;30.73;;;-3.20;99.90;;;;;;2621742;46;20955;31
2022/02/28 06:08:21;;;;;;;67.55;31.20;;;-2.80;99.90;;;;;;2603413;54;20028;31
2022/02/28 06:10:55;;;;;;;66.95;32.15;;;-2.50;99.90;;;;;;2603574;54;20914;31
2022/02/28 06:13:30;;;;;;;67.82;32.03;;;-2.20;99.90;;;;;;2622062;46;20026;31
2022/02/28 06:16:04;;;;;;;73.82;34.63;;;-1.80;99.90;;;;;;2603608;54;20775;31
2022/02/28 06:18:42;;;;;;;60.63;32.65;;;-1.40;99.90;;;;;;2702267;39;20458;31
2022/02/28 06:21:17;;;;;;;71.25;33.63;;;-1.10;99.90;;;;;;2603469;54;20100;31
2022/02/28 06:23:52;;;;;;;65.65;32.65;;;-0.80;99.90;;;;;;2622166;46;20144;31
2022/02/28 06:26:37;;;;;;;68.70;32.78;;;-0.40;99.90;;;;;;2603705;54;20047;31
2022/02/28 06:29:13;;;;;;;61.53;31.17;;;-0.10;99.90;;;;;;2621894;46;19988;31
2022/02/28 06:31:52;;;;;;;63.75;32.85;;;0.20;99.90;;;;;;2603817;54;20824;31
2022/02/28 06:34:31;;;;;;;68.38;34.78;;;0.40;99.90;;;;;;2773631;31;21173;31
2022/02/28 06:37:07;;;;;;;66.85;35.20;;;0.70;99.90;;;;;;2603634;54;20600;31
2022/02/28 06:39:42;;;;;;;58.40;34.87;;;0.90;99.90;;;;;;2603617;54;20858;31
2022/02/28 06:42:18;;;;;;;61.60;33.65;;;1.10;99.90;;;;;;2603677;54;20913;31
2022/02/28 06:44:53;;;;;;;66.68;34.97;;;1.40;99.90;;;;;;2701795;39;20643;31
2022/02/28 06:47:30;;;;;;;70.00;36.50;;;1.60;99.90;;;;;;2603514;54;20080;31
2022/02/28 06:50:10;;;;;;;65.45;35.35;;;1.90;99.90;;;;;;2622030;46;20036;31
2022/02/28 06:52:47;;;;;;;66.10;33.53;;;2.10;99.90;;;;;;2603233;54;20093;31
2022/02/28 06:55:26;;;;;;;68.20;34.90;;;2.40;99.90;;;;;;2603284;54;19989;31
2022/02/28 06:58:02;;;;;;;69.00;34.47;;;2.70;99.90;;;;;;2603407;54;20680;31
2022/02/28 07:00:38;;;;;;;69.50;35.50;;;3.00;99.90;;;;;;2603331;54;20037;31
2022/02/28 07:03:19;;;;;;;61.38;32.63;;;3.30;99.90;;;;;;2701907;39;20444;31
2022/02/28 07:05:58;;;;;;;46.08;25.50;;;3.80;99.90;;;;;;2603430;54;20922;31
2022/02/28 07:08:34;;;;;;;47.65;27.55;;;4.40;99.90;;;;;;2622132;46;20878;31
2022/02/28 07:11:10;;;;;;;50.73;26.37;;;4.80;99.90;;;;;;2603387;54;20026;31
2022/02/28 07:13:45;;;;;;;44.20;23.57;;;5.30;99.90;;;;;;2603245;54;20042;31
2022/02/28 07:16:20;;;;;;;46.03;24.65;;;5.60;99.90;;;;;;2603165;54;20026;31
2022/02/28 07:18:53;;;;;;;82.13;25.30;;;5.80;99.90;;;;;;2701779;39;22431;31
2022/02/28 07:21:31;;;;;;;115.70;24.25;;;6.00;99.90;;;;;;2603249;54;19935;31
2022/02/28 07:24:07;;;;;;;37.03;19.60;;;6.30;99.90;;;;;;2603199;54;20030;31
2022/02/28 07:26:41;;;;;;;36.50;19.50;;;6.60;99.90;;;;;;2622026;46;20062;31
2022/02/28 07:29:13;;;;;;;28.60;17.75;;;6.70;99.90;;;;;;2702145;39;21058;31
2022/02/28 07:31:48;;;;;;;32.08;16.95;;;6.90;99.90;;;;;;2603309;54;20034;31
2022/02/28 07:34:23;;;;;;;29.88;15.95;;;6.90;99.90;;;;;;2603458;54;20052;31
2022/02/28 07:37:01;;;;;;;30.70;15.75;;;7.00;99.90;;;;;;2603262;54;20104;31
2022/02/28 07:39:35;;;;;;;21.93;14.30;;;7.10;99.90;;;;;;2603162;54;20056;31
2022/02/28 07:42:10;;;;;;;29.20;15.25;;;7.30;99.90;;;;;;2701749;39;20648;31
2022/02/28 07:44:50;;;;;;;26.27;14.38;;;7.40;99.90;;;;;;2603243;54;20056;31
2022/02/28 07:47:26;;;;;;;25.95;13.88;;;7.30;99.90;;;;;;2603456;54;20941;31
2022/02/28 07:50:01;;;;;;;25.50;15.27;;;7.60;99.90;;;;;;2603323;54;20026;31
2022/02/28 07:52:38;;;;;;;30.90;15.37;;;7.80;99.90;;;;;;2603306;54;20049;31
2022/02/28 07:55:13;;;;;;;28.88;15.68;;;7.80;99.90;;;;;;2603302;54;20384;31
2022/02/28 07:57:47;;;;;;;26.30;15.80;;;7.60;99.90;;;;;;2602361;54;20967;31
2022/02/28 08:00:22;;;;;;;25.20;14.45;;;7.40;99.90;;;;;;2602511;54;20889;31
2022/02/28 08:02:57;;;;;;;27.90;14.57;;;7.40;99.90;;;;;;2603279;54;20053;31
2022/02/28 08:05:33;;;;;;;28.17;16.42;;;7.70;99.90;;;;;;2603269;54;20897;31
2022/02/28 08:08:11;;;;;;;32.75;16.60;;;7.90;99.90;;;;;;2621819;47;20832;31
2022/02/28 08:10:46;;;;;;;28.88;16.42;;;8.20;99.90;;;;;;2603085;54;20060;31
2022/02/28 08:13:21;;;;;;;31.05;15.95;;;8.40;99.90;;;;;;2603191;54;20829;31
2022/02/28 08:15:55;;;;;;;28.55;15.95;;;8.50;99.90;;;;;;2606223;47;20889;31
2022/02/28 08:18:30;;;;;;;27.92;14.15;;;8.80;99.90;;;;;;2603077;54;20037;31
2022/02/28 08:21:05;;;;;;;28.55;14.82;;;8.90;99.90;;;;;;2621743;47;20027;31
2022/02/28 08:23:42;;;;;;;26.63;14.70;;;8.90;99.90;;;;;;2602984;54;20085;31
2022/02/28 08:26:17;;;;;;;26.80;14.65;;;9.00;99.90;;;;;;2603065;54;20816;31
2022/02/28 08:28:52;;;;;;;26.37;15.87;;;8.80;99.90;;;;;;2603213;54;20804;31
2022/02/28 08:31:28;;;;;;;32.20;19.65;;;8.80;99.90;;;;;;2603726;54;20049;31
2022/02/28 08:34:02;;;;;;;30.05;15.70;;;8.60;99.90;;;;;;2603879;54;20754;31
2022/02/28 08:36:40;;;;;;;27.70;17.45;;;8.70;99.90;;;;;;2603783;54;20894;31
2022/02/28 08:39:16;;;;;;;25.50;14.07;;;9.00;99.90;;;;;;2603844;54;20033;31
2022/02/28 08:41:51;;;;;;;24.55;15.45;;;9.10;99.90;;;;;;2622384;46;20026;31
2022/02/28 08:44:25;;;;;;;27.55;16.45;;;9.00;99.90;;;;;;2603337;54;20034;31
2022/02/28 08:47:00;;;;;;;25.83;14.18;;;8.90;99.90;;;;;;2603126;54;20811;31
2022/02/28 08:49:36;;;;;;;24.30;13.30;;;8.90;99.90;;;;;;2604069;54;20053;31
2022/02/28 08:52:12;;;;;;;22.88;14.30;;;9.10;99.90;;;;;;2622719;46;20289;31
2022/02/28 08:54:50;;;;;;;28.83;15.82;;;9.20;99.90;;;;;;2603685;54;20038;31
2022/02/28 08:57:25;;;;;;;28.77;15.35;;;9.40;99.90;;;;;;2603895;54;20852;31
2022/02/28 09:00:00;;;;;;;21.52;13.38;;;9.70;99.90;;;;;;2609653;46;20053;31
2022/02/28 09:02:36;;;;;;;25.02;14.90;;;9.80;99.90;;;;;;2603908;54;20125;31
2022/02/28 09:05:13;;;;;;;24.25;15.00;;;9.80;99.90;;;;;;2603773;54;20038;31
2022/02/28 09:07:47;;;;;;;27.02;15.23;;;10.00;99.90;;;;;;2603714;54;20065;31
2022/02/28 09:10:25;;;;;;;26.30;14.95;;;10.00;99.90;;;;;;2603172;54;20782;31
2022/02/28 09:12:59;;;;;;;23.13;12.32;;;10.20;99.90;;;;;;2603819;54;20996;31
2022/02/28 09:15:35;;;;;;;30.10;14.43;;;10.20;99.90;;;;;;2621797;46;20149;31
2022/02/28 09:18:12;;;;;;;21.65;13.18;;;10.30;99.90;;;;;;2603180;54;20042;31
2022/02/28 09:20:47;;;;;;;23.30;14.10;;;10.40;99.90;;;;;;2603833;54;20037;31
2022/02/28 09:41:48;;;;;;;19.27;10.60;;;10.30;91.10;;;;;;2625932;53;20088;31
2022/02/28 10:03:44;;;;;;;20.23;11.90;;;9.40;93.20;;;;;;2588040;54;20030;31
2022/02/28 10:06:24;;;;;;;16.03;9.77;;;9.30;93.70;;;;;;2589028;54;20937;31
2022/02/28 10:15:33;;;;;;;18.10;10.63;;;9.10;94.20;;;;;;2607442;54;19940;31
2022/02/28 10:34:13;;;;;;;27.05;14.05;;;8.40;86.30;;;;;;2588141;54;20986;31
2022/02/28 10:49:43;;;;;;;35.73;19.87;;;6.70;91.70;;;;;;2584516;54;20038;31
2022/02/28 10:52:27;;;;;;;11.55;7.28;;;6.40;92.80;;;;;;2603980;46;20936;31
2022/02/28 11:16:36;;;;;;;9.73;4.57;;;5.80;91.30;;;;;;2584399;54;20018;31
2022/02/28 11:19:11;;;;;;;9.33;3.27;;;5.80;91.70;;;;;;2584969;54;20057;31
2022/02/28 11:21:54;;;;;;;9.57;5.05;;;6.00;91.20;;;;;;2585455;54;20030;31
2022/02/28 11:30:32;;;;;;;6.53;3.43;;;5.90;89.20;;;;;;2584642;54;20937;31
2022/02/28 11:36:08;;;;;;;10.57;6.23;;;5.80;90.90;;;;;;2585442;54;20026;31
2022/02/28 11:42:13;;;;;;;14.50;7.35;;;6.00;92.90;;;;;;2631180;54;20014;-94
2022/02/28 11:44:58;;;;;;;10.23;4.70;;;6.10;91.60;;;;;;2585531;54;20038;31
2022/02/28 11:47:33;;;;;;;9.15;4.70;;;6.00;91.90;;;;;;2683000;39;21739;31
2022/02/28 11:53:34;;;;;;;9.63;4.75;;;5.90;91.80;;;;;;2585596;54;20920;31
2022/02/28 11:56:54;;;;;;;11.10;5.40;;;5.80;90.50;;;;;;2585512;54;20585;31
2022/02/28 11:59:35;;;;;;;11.13;4.60;;;5.80;91.80;;;;;;2604135;46;20038;31
2022/02/28 12:02:26;;;;;;;16.75;7.30;;;5.80;92.70;;;;;;2585056;54;20277;31
2022/02/28 12:05:04;;;;;;;11.87;6.53;;;5.80;92.80;;;;;;2604279;46;20982;31
2022/02/28 12:07:48;;;;;;;;;;;5.70;91.90;;;;;;2603698;46;21029;31
2022/02/28 12:10:28;;;;;;;10.25;4.40;;;5.70;93.20;;;;;;2603699;46;20808;31
2022/02/28 12:13:08;;;;;;;25.65;9.90;;;5.60;92.60;;;;;;2585159;54;20026;31
2022/02/28 12:15:43;;;;;;;11.27;5.80;;;5.40;92.30;;;;;;2603490;46;21718;31
2022/02/28 12:21:19;;;;;;;19.17;8.90;;;5.00;92.40;;;;;;2584374;54;20956;31
2022/02/28 12:23:58;;;;;;;35.35;13.20;;;4.90;92.50;;;;;;2584322;54;20037;31
2022/02/28 12:26:41;;;;;;;11.23;5.38;;;4.80;92.50;;;;;;2585223;54;20022;31
2022/02/28 12:29:18;;;;;;;11.10;5.10;;;4.80;92.40;;;;;;2603883;46;21815;31
2022/02/28 12:31:58;;;;;;;17.05;7.10;;;4.70;91.50;;;;;;2683426;39;21030;31
2022/02/28 12:37:51;;;;;;;47.33;20.38;;;4.60;91.60;;;;;;2683323;39;21050;31
2022/02/28 12:47:02;;;;;;;13.35;4.95;;;4.50;92.50;;;;;;2584424;54;21309;31
2022/02/28 12:49:52;;;;;;;9.07;4.35;;;4.60;94.00;;;;;;2584597;54;20077;31
2022/02/28 13:04:54;;;;;;;13.80;6.40;;;4.50;91.80;;;;;;2585118;54;20907;31
2022/02/28 13:07:31;;;;;;;10.35;5.15;;;4.50;92.90;;;;;;2584333;54;20900;31
2022/02/28 13:22:36;;;;;;;16.55;7.80;;;4.40;91.20;;;;;;2584052;54;20036;31
2022/02/28 13:37:17;;;;;;;15.90;6.75;;;4.20;93.70;;;;;;2584107;54;20779;31
2022/02/28 13:52:38;;;;;;;11.60;4.70;;;4.20;91.60;;;;;;2583728;54;20057;31
2022/02/28 13:58:36;;;;;;;11.70;5.00;;;4.00;91.20;;;;;;2602587;54;20014;31
2022/02/28 14:01:24;;;;;;;13.05;6.57;;;4.00;91.70;;;;;;2588279;47;20137;31
2022/02/28 14:10:11;;;;;;;12.82;5.60;;;3.70;92.90;;;;;;2584073;54;20952;31
2022/02/28 14:25:18;;;;;;;34.67;12.52;;;3.60;92.60;;;;;;2585463;54;20085;31
2022/02/28 14:28:28;;;;;;;104.47;57.78;;;3.60;93.60;;;;;;2585265;54;20735;31
2022/02/28 14:31:45;;;;;;;43.75;19.75;;;3.60;92.40;;;;;;2585680;54;21860;31
2022/02/28 14:34:19;;;;;;;22.70;10.50;;;3.60;92.20;;;;;;2584827;54;20775;31
2022/02/28 14:36:58;;;;;;;454.10;211.70;;;3.60;92.30;;;;;;2603013;46;20957;31
2022/02/28 14:39:49;;;;;;;169.60;76.40;;;3.60;92.40;;;;;;2584272;54;20976;31
2022/02/28 14:42:29;;;;;;;19.80;9.70;;;3.50;91.80;;;;;;2584837;54;20032;31
2022/02/28 14:48:04;;;;;;;59.28;27.80;;;3.40;92.30;;;;;;2602283;54;21183;31
2022/02/28 14:53:50;;;;;;;47.17;22.42;;;3.30;91.60;;;;;;2584818;54;20942;31
2022/02/28 14:56:26;;;;;;;13.77;5.90;;;3.30;91.50;;;;;;2584551;54;20023;31
2022/02/28 14:59:03;;;;;;;;;;;3.30;92.10;;;;;;2584813;54;20112;31
2022/02/28 15:01:37;;;;;;;28.95;11.80;;;3.20;91.70;;;;;;2585720;54;19939;31
2022/02/28 15:04:15;;;;;;;13.90;7.63;;;3.30;92.50;;;;;;2585345;54;20031;31
2022/02/28 15:06:50;;;;;;;9.75;4.85;;;3.20;92.00;;;;;;2585415;54;21011;31
2022/02/28 15:09:26;;;;;;;12.70;6.10;;;3.10;92.00;;;;;;2599618;46;20046;31
2022/02/28 15:12:01;;;;;;;;;;;3.00;91.90;;;;;;2585788;54;20035;31
2022/02/28 15:14:38;;;;;;;10.75;4.63;;;3.00;91.40;;;;;;2585528;54;20011;31
2022/02/28 15:17:16;;;;;;;9.80;6.40;;;3.00;91.20;;;;;;2584797;54;20081;31
2022/02/28 15:19:53;;;;;;;6.13;3.20;;;3.00;91.60;;;;;;2584218;54;20030;31
2022/02/28 15:22:27;;;;;;;7.30;4.60;;;3.00;91.30;;;;;;2584696;54;20976;31
2022/02/28 15:25:03;;;;;;;14.20;6.45;;;3.00;91.30;;;;;;2603008;46;20039;31
2022/02/28 15:30:57;;;;;;;14.77;7.63;;;2.90;91.20;;;;;;2584425;54;20038;31
2022/02/28 15:33:32;;;;;;;18.63;9.57;;;2.90;90.50;;;;;;2604078;46;20769;31
2022/02/28 15:36:09;;;;;;;15.55;7.95;;;2.90;91.30;;;;;;2773000;31;21238;31
2022/02/28 15:38:47;;;;;;;9.97;6.10;;;2.80;91.40;;;;;;2585645;54;20892;31
2022/02/28 15:41:22;;;;;;;17.38;7.82;;;2.80;91.50;;;;;;2585343;54;20887;31
2022/02/28 15:43:57;;;;;;;13.65;8.45;;;2.80;92.20;;;;;;2585440;54;20030;31
2022/02/28 15:46:46;;;;;;;13.00;7.70;;;2.90;92.70;;;;;;2585293;54;20100;31
2022/02/28 15:49:22;;;;;;;9.93;4.40;;;2.80;91.80;;;;;;2584366;54;20027;31
2022/02/28 15:52:00;;;;;;;9.52;4.68;;;2.80;91.90;;;;;;2585426;54;20775;31
2022/02/28 15:54:35;;;;;;;9.57;5.57;;;2.80;92.70;;;;;;2584338;54;20033;31
2022/02/28 16:00:06;;;;;;;12.35;5.40;;;2.70;93.00;;;;;;2584377;54;20061;31
2022/02/28 16:02:49;;;;;;;11.53;5.00;;;2.80;93.30;;;;;;2585502;54;19934;31
2022/02/28 16:05:23;;;;;;;10.75;5.25;;;2.70;93.20;;;;;;2585566;54;20033;31
2022/02/28 16:07:58;;;;;;;9.98;4.60;;;2.70;93.60;;;;;;2754523;31;21148;31
2022/02/28 16:10:33;;;;;;;10.33;5.43;;;2.70;95.90;;;;;;2600666;46;20030;31
2022/02/28 16:13:09;;;;;;;7.50;4.30;;;2.70;93.80;;;;;;2585180;54;20241;31
2022/02/28 16:15:47;;;;;;;12.65;5.20;;;2.60;94.60;;;;;;2585414;54;20065;31
2022/02/28 16:30:56;;;;;;;12.73;6.10;;;2.60;95.10;;;;;;2584146;54;20915;31
2022/02/28 16:36:41;;;;;;;12.48;5.57;;;2.50;95.60;;;;;;2581934;54;20042;31
2022/02/28 16:39:33;;;;;;;12.50;5.00;;;2.50;95.80;;;;;;2584383;54;20023;31
2022/02/28 16:42:09;;;;;;;;;;;2.40;96.00;;;;;;2585544;54;20043;31
2022/02/28 16:44:43;;;;;;;10.93;4.60;;;2.40;96.30;;;;;;2754165;31;22419;31
2022/02/28 16:53:33;;;;;;;13.77;5.25;;;2.30;98.00;;;;;;2584952;54;20950;31
2022/02/28 17:26:45;;;;;;;23.40;10.93;;;1.30;99.90;;;;;;2583793;54;20038;31
2022/02/28 17:29:27;;;;;;;23.92;12.15;;;1.20;99.90;;;;;;2583919;54;20887;31
2022/02/28 17:38:17;;;;;;;38.73;16.67;;;1.10;99.90;;;;;;2583881;54;20886;31
2022/02/28 17:40:53;;;;;;;32.92;14.35;;;1.10;99.90;;;;;;2600140;47;20109;31
2022/02/28 17:43:30;;;;;;;37.30;15.95;;;1.10;99.90;;;;;;2585056;54;20092;31
2022/02/28 17:46:20;;;;;;;36.17;16.45;;;1.10;99.90;;;;;;2585028;54;19956;31
2022/02/28 17:49:01;;;;;;;48.60;20.58;;;1.20;99.90;;;;;;2585646;54;20026;31
2022/02/28 17:51:37;;;;;;;63.10;27.00;;;1.20;99.90;;;;;;2585685;54;20087;31
2022/02/28 17:54:13;;;;;;;70.28;30.08;;;1.10;99.90;;;;;;2585837;54;21014;31
2022/02/28 17:56:50;;;;;;;70.07;30.58;;;1.00;99.90;;;;;;2585936;54;20030;31
2022/02/28 17:59:25;;;;;;;66.05;32.35;;;1.10;99.90;;;;;;2585770;54;20954;31
2022/02/28 18:02:01;;;;;;;71.22;35.20;;;1.00;99.90;;;;;;2684063;39;22377;31
2022/02/28 18:04:42;;;;;;;74.13;35.20;;;1.00;99.90;;;;;;2584794;54;20173;31
2022/02/28 18:10:24;;;;;;;120.18;64.22;;;1.00;99.90;;;;;;2584630;54;20977;31